^^
Meteo Knjazevac Station Historical Data
Daily Summary for May 21, 2021 Units:  English    Metric   Both
Daily Weekly Monthly Yearly Custom
  High: Low: Average:
Temperature: 79.5 °F 62.1 °F 70.3 °F
Dew Point: 65 °F 58.7 °F 61.5 °F
Humidity: 99% 54% 76%
Wind Speed: 13mph 0mph 4.6mph
Wind Gust: 22mph - -
Wind- - WSW
Pressure: 30.15 in 30.07 in -
Precipitation: 0.00 in    
Historical Graphs
 
 
Tabular Data for May 21, 2021
Time Temperature Dew Point Pressure Wind Wind Speed Wind Gust Humidity Rainfall Rate (Hourly) solar Conditions
00:00 67.1 °F 65 °F 30.07 in NE 1 mph 3 mph 93% 0.00 in 0 W/m2
00:10 66.9 °F 64.8 °F 30.07 in ENE 2 mph 7 mph 93% 0.00 in 0 W/m2
00:20 66.6 °F 64.5 °F 30.07 in NNE 1 mph 3 mph 93% 0.00 in 0 W/m2
00:30 66.4 °F 64.6 °F 30.07 in WSW 1 mph 3 mph 94% 0.00 in 0 W/m2
00:40 66 °F 64.2 °F 30.07 in West 1 mph 4 mph 94% 0.00 in 0 W/m2
00:50 65.8 °F 64.4 °F 30.07 in SSW 2 mph 3 mph 95% 0.00 in 0 W/m2
01:00 65.7 °F 64.2 °F 30.07 in Calm   3 mph 95% 0.00 in 0 W/m2
01:10 65.5 °F 64 °F 30.07 in WSW 2 mph 3 mph 95% 0.00 in 0 W/m2
01:20 65.3 °F 64.1 °F 30.07 in WSW 2 mph 5 mph 96% 0.00 in 0 W/m2
01:30 65.1 °F 64 °F 30.07 in SW 2 mph 3 mph 96% 0.00 in 0 W/m2
01:40 64.6 °F 63.4 °F 30.07 in WSW 1 mph 3 mph 96% 0.00 in 0 W/m2
01:50 64.6 °F 64 °F 30.07 in WSW 1 mph 2 mph 98% 0.00 in 0 W/m2
02:00 64.6 °F 64 °F 30.07 in West 1 mph 2 mph 98% 0.00 in 0 W/m2
02:10 64.6 °F 64.3 °F 30.07 in West 2 mph 3 mph 99% 0.00 in 0 W/m2
02:20 64.6 °F 64.3 °F 30.07 in WSW 2 mph 2 mph 99% 0.00 in 0 W/m2
02:30 64.4 °F 63.8 °F 30.07 in WSW 1 mph 3 mph 98% 0.00 in 0 W/m2
02:40 64.4 °F 63.8 °F 30.07 in WSW 1 mph 3 mph 98% 0.00 in 0 W/m2
02:50 64.4 °F 64.1 °F 30.07 in Calm   3 mph 99% 0.00 in 0 W/m2
03:00 64.4 °F 64.1 °F 30.08 in West 1 mph 2 mph 99% 0.00 in 0 W/m2
03:10 64.4 °F 63.8 °F 30.08 in Calm   2 mph 98% 0.00 in 0 W/m2
03:20 63.9 °F 63.3 °F 30.08 in West 1 mph 2 mph 98% 0.00 in 0 W/m2
03:30 63.5 °F 62.9 °F 30.08 in West 1 mph 3 mph 98% 0.00 in 0 W/m2
03:40 63.3 °F 63 °F 30.08 in WNW 1 mph 3 mph 99% 0.00 in 0 W/m2
03:50 63.3 °F 63 °F 30.08 in SSW 1 mph 3 mph 99% 0.00 in 0 W/m2
04:00 63.3 °F 63 °F 30.08 in SW 1 mph 3 mph 99% 0.00 in 0 W/m2
04:10 63.1 °F 62.9 °F 30.08 in WSW 1 mph 2 mph 99% 0.00 in 0 W/m2
04:20 63 °F 62.7 °F 30.08 in Calm   1 mph 99% 0.00 in 0 W/m2
04:30 63 °F 62.7 °F 30.08 in WNW 1 mph 3 mph 99% 0.00 in 0 W/m2
04:40 62.8 °F 62.5 °F 30.08 in SSW 1 mph 3 mph 99% 0.00 in 0 W/m2
04:50 62.6 °F 62.3 °F 30.08 in South 1 mph 3 mph 99% 0.00 in 0 W/m2
05:00 62.6 °F 62.3 °F 30.09 in North 2 mph 4 mph 99% 0.00 in 0 W/m2
05:10 62.4 °F 62.1 °F 30.09 in NE 3 mph 6 mph 99% 0.00 in 3 W/m2
05:20 62.4 °F 62.1 °F 30.09 in NE 5 mph 7 mph 99% 0.00 in 8 W/m2
05:30 62.4 °F 62.1 °F 30.10 in NE 5 mph 7 mph 99% 0.00 in 16 W/m2
05:40 62.2 °F 62 °F 30.10 in NE 2 mph 7 mph 99% 0.00 in 26 W/m2
05:50 62.1 °F 61.8 °F 30.10 in NE 5 mph 8 mph 99% 0.00 in 37 W/m2
06:00 62.1 °F 61.8 °F 30.10 in East 3 mph 7 mph 99% 0.00 in 55 W/m2
06:10 62.1 °F 61.8 °F 30.10 in North 2 mph 6 mph 99% 0.00 in 57 W/m2
06:20 62.2 °F 61.7 °F 30.11 in SSE 1 mph 7 mph 98% 0.00 in 98 W/m2
06:30 62.2 °F 61.7 °F 30.11 in North 1 mph 5 mph 98% 0.00 in 124 W/m2
06:40 62.4 °F 61.3 °F 30.11 in NE 1 mph 4 mph 96% 0.00 in 150 W/m2
06:50 62.6 °F 61.4 °F 30.11 in NNE 2 mph 5 mph 96% 0.00 in 178 W/m2
07:00 62.8 °F 61.6 °F 30.12 in NW 1 mph 3 mph 96% 0.00 in 214 W/m2
07:10 63.3 °F 61.9 °F 30.12 in SW 5 mph 7 mph 95% 0.00 in 238 W/m2
07:20 64 °F 62.3 °F 30.12 in SW 5 mph 9 mph 94% 0.00 in 248 W/m2
07:30 64.8 °F 61.8 °F 30.12 in WSW 5 mph 13 mph 90% 0.00 in 169 W/m2
07:40 65.1 °F 61.8 °F 30.12 in WSW 7 mph 11 mph 89% 0.00 in 295 W/m2
07:50 65.7 °F 62 °F 30.12 in WSW 6 mph 12 mph 88% 0.00 in 355 W/m2
08:00 66.4 °F 61.7 °F 30.13 in WSW 6 mph 15 mph 85% 0.00 in 407 W/m2
08:10 66.7 °F 62.1 °F 30.13 in WSW 7 mph 13 mph 85% 0.00 in 430 W/m2
08:20 67.1 °F 62.1 °F 30.13 in West 7 mph 13 mph 84% 0.00 in 473 W/m2
08:30 67.5 °F 62.1 °F 30.13 in West 7 mph 13 mph 83% 0.00 in 510 W/m2
08:40 67.8 °F 61.4 °F 30.13 in WSW 8 mph 12 mph 80% 0.00 in 551 W/m2
08:50 68.4 °F 61.6 °F 30.14 in West 6 mph 14 mph 79% 0.00 in 582 W/m2
09:00 69.1 °F 61.6 °F 30.13 in WSW 9 mph 14 mph 77% 0.00 in 606 W/m2
09:10 70.2 °F 61.5 °F 30.13 in WSW 8 mph 13 mph 74% 0.00 in 648 W/m2
09:20 70.9 °F 61.8 °F 30.13 in WSW 8 mph 13 mph 73% 0.00 in 676 W/m2
09:30 71.4 °F 61.9 °F 30.13 in WSW 9 mph 15 mph 72% 0.00 in 708 W/m2
09:40 72 °F 61.6 °F 30.13 in West 9 mph 14 mph 70% 0.00 in 734 W/m2
09:50 72.3 °F 60.7 °F 30.13 in West 9 mph 14 mph 67% 0.00 in 757 W/m2
10:00 72.7 °F 60.7 °F 30.13 in WSW 9 mph 20 mph 66% 0.00 in 779 W/m2
10:10 73 °F 60.6 °F 30.13 in WSW 9 mph 17 mph 65% 0.00 in 800 W/m2
10:20 73.4 °F 60.5 °F 30.13 in WSW 10 mph 19 mph 64% 0.00 in 820 W/m2
10:30 73.4 °F 60.5 °F 30.13 in WSW 8 mph 20 mph 64% 0.00 in 839 W/m2
10:40 73.6 °F 60.6 °F 30.13 in West 13 mph 20 mph 64% 0.00 in 856 W/m2
10:50 73.8 °F 60.8 °F 30.13 in WSW 9 mph 22 mph 64% 0.00 in 225 W/m2
11:00 74.1 °F 61.2 °F 30.13 in WSW 9 mph 17 mph 64% 0.00 in 887 W/m2
11:10 74.5 °F 60.6 °F 30.13 in WSW 9 mph 18 mph 62% 0.00 in 900 W/m2
11:20 74.7 °F 60.8 °F 30.13 in WSW 10 mph 17 mph 62% 0.00 in 300 W/m2
11:30 75 °F 60.2 °F 30.13 in WSW 12 mph 21 mph 60% 0.00 in 718 W/m2
11:40 74.9 °F 60 °F 30.13 in WSW 7 mph 17 mph 60% 0.01 in 533 W/m2
11:50 75.2 °F 60.4 °F 30.13 in WSW 7 mph 17 mph 60% 0.00 in 939 W/m2
12:00 75.6 °F 60.7 °F 30.12 in WSW 12 mph 17 mph 60% 0.01 in 945 W/m2
12:10 76.1 °F 61.2 °F 30.12 in West 9 mph 17 mph 60% 0.00 in 950 W/m2
12:20 76.5 °F 60.6 °F 30.12 in WSW 8 mph 20 mph 58% 0.00 in 953 W/m2
12:30 76.3 °F 59.9 °F 30.12 in West 10 mph 18 mph 57% 0.00 in 955 W/m2
12:40 76.6 °F 61.2 °F 30.12 in West 8 mph 20 mph 59% 0.00 in 955 W/m2
12:50 77.2 °F 61.3 °F 30.12 in West 10 mph 17 mph 58% 0.00 in 640 W/m2
13:00 76.8 °F 60.9 °F 30.12 in West 10 mph 17 mph 58% 0.00 in 350 W/m2
13:10 76.4 °F 60.5 °F 30.12 in West 9 mph 18 mph 58% 0.00 in 650 W/m2
13:20 76.6 °F 60.8 °F 30.12 in West 9 mph 21 mph 58% 0.00 in 939 W/m2
13:30 77 °F 61.1 °F 30.12 in West 10 mph 17 mph 58% 0.00 in 442 W/m2
13:40 77.2 °F 60.8 °F 30.12 in West 10 mph 16 mph 57% 0.00 in 923 W/m2
13:50 77 °F 60.6 °F 30.11 in West 8 mph 20 mph 57% 0.00 in 912 W/m2
14:00 77.3 °F 61.4 °F 30.11 in WNW 5 mph 14 mph 58% 0.00 in 448 W/m2
14:10 77 °F 61.1 °F 30.11 in West 9 mph 15 mph 58% 0.00 in 529 W/m2
14:20 76.3 °F 59.9 °F 30.11 in WSW 7 mph 16 mph 57% 0.00 in 622 W/m2
14:30 76.9 °F 61 °F 30.11 in West 8 mph 15 mph 58% 0.00 in 637 W/m2
14:40 76.6 °F 60.3 °F 30.11 in West 6 mph 15 mph 57% 0.00 in 252 W/m2
14:50 77.2 °F 60.8 °F 30.10 in WSW 8 mph 14 mph 57% 0.00 in 820 W/m2
15:00 77.7 °F 61.3 °F 30.10 in West 8 mph 15 mph 57% 0.00 in 800 W/m2
15:10 77.7 °F 60.2 °F 30.10 in WSW 10 mph 19 mph 55% 0.00 in 289 W/m2
15:20 78.1 °F 60.6 °F 30.10 in West 7 mph 14 mph 55% 0.00 in 756 W/m2
15:30 78.1 °F 60.1 °F 30.10 in West 8 mph 16 mph 54% 0.00 in 421 W/m2
15:40 77.7 °F 60.3 °F 30.10 in West 10 mph 21 mph 55% 0.00 in 709 W/m2
15:50 77.9 °F 60.5 °F 30.10 in West 7 mph 18 mph 55% 0.00 in 684 W/m2
16:00 78.3 °F 60.2 °F 30.10 in WNW 5 mph 14 mph 54% 0.00 in 509 W/m2
16:10 78.6 °F 60.6 °F 30.10 in WNW 8 mph 15 mph 54% 0.00 in 630 W/m2
16:20 78.8 °F 60.8 °F 30.10 in West 7 mph 15 mph 54% 0.00 in 603 W/m2
16:30 79 °F 60.9 °F 30.10 in West 6 mph 16 mph 54% 0.00 in 574 W/m2
16:40 79.3 °F 61.2 °F 30.10 in West 7 mph 13 mph 54% 0.00 in 545 W/m2
16:50 79.3 °F 61.2 °F 30.10 in WNW 7 mph 13 mph 54% 0.00 in 516 W/m2
17:00 79.4 °F 61.3 °F 30.10 in NW 8 mph 14 mph 54% 0.00 in 486 W/m2
17:10 79.5 °F 61.4 °F 30.10 in WNW 8 mph 14 mph 54% 0.00 in 450 W/m2
17:20 78.8 °F 61.3 °F 30.10 in WNW 6 mph 13 mph 55% 0.00 in 209 W/m2
17:30 78.7 °F 61.1 °F 30.10 in NW 7 mph 13 mph 55% 0.00 in 372 W/m2
17:40 78.6 °F 60.6 °F 30.10 in WNW 7 mph 15 mph 54% 0.00 in 349 W/m2
17:50 78.6 °F 61.6 °F 30.10 in NW 5 mph 13 mph 56% 0.00 in 318 W/m2
18:00 78.6 °F 61.1 °F 30.10 in NW 7 mph 13 mph 55% 0.00 in 274 W/m2
18:10 78.4 °F 60.9 °F 30.10 in NW 2 mph 13 mph 55% 0.00 in 248 W/m2
18:20 78.3 °F 60.8 °F 30.11 in NW 6 mph 10 mph 55% 0.00 in 210 W/m2
18:30 77.9 °F 60.4 °F 30.10 in NW 6 mph 12 mph 55% 0.00 in 180 W/m2
18:40 77.5 °F 61.1 °F 30.10 in NW 6 mph 12 mph 57% 0.00 in 148 W/m2
18:50 77.2 °F 60.8 °F 30.11 in NW 3 mph 10 mph 57% 0.00 in 121 W/m2
19:00 76.8 °F 61.4 °F 30.11 in WNW 5 mph 8 mph 59% 0.00 in 98 W/m2
19:10 76.5 °F 61.5 °F 30.11 in NW 1 mph 8 mph 60% 0.00 in 74 W/m2
19:20 76.1 °F 62.1 °F 30.11 in WNW 3 mph 6 mph 62% 0.00 in 49 W/m2
19:30 75.5 °F 61.6 °F 30.11 in WNW 3 mph 8 mph 62% 0.00 in 36 W/m2
19:40 74.8 °F 61.4 °F 30.11 in West 2 mph 6 mph 63% 0.00 in 23 W/m2
19:50 74.1 °F 60.7 °F 30.12 in West 3 mph 6 mph 63% 0.00 in 13 W/m2
20:00 73.5 °F 60.6 °F 30.12 in West 2 mph 6 mph 64% 0.00 in 6 W/m2
20:10 72.9 °F 61.3 °F 30.12 in West 3 mph 5 mph 67% 0.00 in 0 W/m2
20:20 72.1 °F 61 °F 30.12 in West 2 mph 5 mph 68% 0.00 in 0 W/m2
20:30 71.7 °F 61 °F 30.13 in WSW 2 mph 3 mph 69% 0.00 in 0 W/m2
20:40 71.2 °F 60.5 °F 30.13 in WSW 1 mph 3 mph 69% 0.00 in 0 W/m2
20:50 70.7 °F 61.2 °F 30.13 in Calm   2 mph 72% 0.00 in 0 W/m2
21:00 70.3 °F 61.3 °F 30.14 in NNW 1 mph 2 mph 73% 0.00 in 0 W/m2
21:10 69.6 °F 61.3 °F 30.14 in SW 1 mph 2 mph 75% 0.00 in 0 W/m2
21:20 69.2 °F 61.7 °F 30.14 in West 2 mph 4 mph 77% 0.00 in 0 W/m2
21:30 68.7 °F 60.4 °F 30.14 in West 3 mph 5 mph 75% 0.00 in 0 W/m2
21:40 68.2 °F 60 °F 30.15 in West 2 mph 5 mph 75% 0.00 in 0 W/m2
21:50 67.8 °F 60.3 °F 30.15 in West 2 mph 5 mph 77% 0.00 in 0 W/m2
22:00 67.3 °F 60.2 °F 30.15 in West 2 mph 4 mph 78% 0.00 in 0 W/m2
22:10 66.7 °F 60.4 °F 30.15 in WSW 1 mph 2 mph 80% 0.00 in 0 W/m2
22:20 66.3 °F 60.3 °F 30.15 in Calm     81% 0.00 in 0 W/m2
22:30 65.8 °F 60.5 °F 30.15 in WSW 1 mph 2 mph 83% 0.00 in 0 W/m2
22:40 64.9 °F 60 °F 30.15 in Calm   2 mph 84% 0.00 in 0 W/m2
22:50 64.6 °F 60 °F 30.15 in WSW 1 mph 2 mph 85% 0.00 in 0 W/m2
23:00 64 °F 59.4 °F 30.15 in SW 1 mph 3 mph 85% 0.00 in 0 W/m2
23:10 63.3 °F 59.1 °F 30.15 in Calm   4 mph 86% 0.00 in 0 W/m2
23:20 63 °F 58.7 °F 30.15 in West 1 mph 3 mph 86% 0.00 in 0 W/m2
23:30 62.8 °F 59.2 °F 30.15 in North 1 mph 3 mph 88% 0.00 in 0 W/m2
23:40 62.6 °F 59 °F 30.15 in Calm   2 mph 88% 0.00 in 0 W/m2
23:50 62.4 °F 59.1 °F 30.15 in Calm   2 mph 89% 0.00 in 0 W/m2
Knjazevac, Serbia
Compliments of Weather Underground - 2 mb